Estación Meteorológica Peña el Pijo (Robertgarden) [ 11/12/19 16:27:22 CET ]

Fecha Hora Presion(HPa) Temp (°C) Humedad % Rocio (°C) Viento ( m/s) Direccion Lluvia 1Hora(mm) Lluvia 24H(mm) LLuvia Total(mm)
2019-Jan-19 01:01:40 1005.200 1.3 69 -3.8         161.09
2019-Jan-19 02:01:42 1004.900 1.8 70 -3.1         161.09
2019-Jan-19 03:02:47 1004.700 0.2 72 -4.3         161.09
2019-Jan-19 04:10:03 1004.100 0.3 76 -3.4         161.09
2019-Jan-19 05:01:17 1003.900 2.4 74 -1.8         161.09
2019-Jan-19 06:01:09 1003.700 2.8 71 -1.9         161.09
2019-Jan-19 07:01:52 1003.900 2.5 71 -2.2         161.09
2019-Jan-19 08:02:03 1004.000 2.1 72 -2.4         161.09
2019-Jan-19 09:01:37 1004.300 1.9 72 -2.6         161.09
2019-Jan-19 10:01:54 1004.600 5.6 66 -0.3         161.09
2019-Jan-19 11:01:44 1004.900 8.7 52 -0.7         161.09
2019-Jan-19 12:01:59 1004.700 10.7 47 -0.2         161.09
2019-Jan-19 13:01:38 1003.700 11.9 44 -0.1         161.09
2019-Jan-19 14:02:04 1002.900 13.3 39 -0.4         161.09
2019-Jan-19 15:01:45 1002.100 12.5 40 -0.8         161.09
2019-Jan-19 16:01:56 1002.100 11.6 43 -0.6 1.5 WNW     161.09
2019-Jan-19 17:01:45 1002.100 9.6 49 -0.6 2.3 WNW     161.09
2019-Jan-19 18:01:43 1001.700 7.8 56 -0.5         161.09
2019-Jan-19 19:01:55 1001.700 6.6 62 -0.2         161.09
2019-Jan-19 20:01:51 1001.700 6.1 65 -0.0         161.09
2019-Jan-19 21:01:40 1001.200 6.6 68 1.1         161.09
2019-Jan-19 22:01:55 1000.500 6.9 70 1.8         161.09
2019-Jan-19 23:01:57 1000.300 7.4 71 2.5         161.09

Temperatura Máxima:13°    Temperatura Mínima:
Presión Máxima:1005.200 Hpa    Presión Mínima:1000.300 Hpa


Volver